sensor_id;sensor_type;location;lat;lon;timestamp;temperature;humidity
73254;DHT22;61474;50.834;4.552;2022-08-27T00:02:02;27.70;52.30
73254;DHT22;61474;50.834;4.552;2022-08-27T00:04:29;27.70;52.40
73254;DHT22;61474;50.834;4.552;2022-08-27T00:06:55;27.70;52.50
73254;DHT22;61474;50.834;4.552;2022-08-27T00:09:20;27.60;52.70
73254;DHT22;61474;50.834;4.552;2022-08-27T00:11:46;27.60;53.70
73254;DHT22;61474;50.834;4.552;2022-08-27T00:14:12;27.60;53.20
73254;DHT22;61474;50.834;4.552;2022-08-27T00:16:38;27.60;53.10
73254;DHT22;61474;50.834;4.552;2022-08-27T00:19:03;27.60;53.10
73254;DHT22;61474;50.834;4.552;2022-08-27T00:21:29;27.50;53.20
73254;DHT22;61474;50.834;4.552;2022-08-27T00:23:57;27.60;53.50
73254;DHT22;61474;50.834;4.552;2022-08-27T00:26:23;27.70;53.50
73254;DHT22;61474;50.834;4.552;2022-08-27T00:28:48;27.70;53.10
73254;DHT22;61474;50.834;4.552;2022-08-27T00:31:14;27.80;53.10
73254;DHT22;61474;50.834;4.552;2022-08-27T00:33:40;27.70;53.00
73254;DHT22;61474;50.834;4.552;2022-08-27T00:36:06;27.70;53.10
73254;DHT22;61474;50.834;4.552;2022-08-27T00:38:33;27.60;53.30
73254;DHT22;61474;50.834;4.552;2022-08-27T00:40:59;27.70;53.50
73254;DHT22;61474;50.834;4.552;2022-08-27T00:43:28;27.70;53.40
73254;DHT22;61474;50.834;4.552;2022-08-27T00:46:04;27.70;53.30
73254;DHT22;61474;50.834;4.552;2022-08-27T00:48:34;27.60;53.30
73254;DHT22;61474;50.834;4.552;2022-08-27T00:51:00;27.60;53.50
73254;DHT22;61474;50.834;4.552;2022-08-27T00:53:29;27.60;53.40
73254;DHT22;61474;50.834;4.552;2022-08-27T00:56:14;27.60;53.40
73254;DHT22;61474;50.834;4.552;2022-08-27T00:58:44;27.70;53.30
73254;DHT22;61474;50.834;4.552;2022-08-27T01:01:14;27.70;53.00
73254;DHT22;61474;50.834;4.552;2022-08-27T01:03:42;27.70;53.00
73254;DHT22;61474;50.834;4.552;2022-08-27T01:06:11;27.60;53.10
73254;DHT22;61474;50.834;4.552;2022-08-27T01:08:41;27.70;53.30
73254;DHT22;61474;50.834;4.552;2022-08-27T01:11:08;27.80;52.90
73254;DHT22;61474;50.834;4.552;2022-08-27T01:13:36;27.70;52.70
73254;DHT22;61474;50.834;4.552;2022-08-27T01:16:03;27.70;52.70
73254;DHT22;61474;50.834;4.552;2022-08-27T01:18:33;27.70;52.90
73254;DHT22;61474;50.834;4.552;2022-08-27T01:21:23;27.70;52.70
73254;DHT22;61474;50.834;4.552;2022-08-27T01:24:29;27.70;52.70
73254;DHT22;61474;50.834;4.552;2022-08-27T01:26:55;27.60;52.80
73254;DHT22;61474;50.834;4.552;2022-08-27T01:29:22;27.70;53.00
73254;DHT22;61474;50.834;4.552;2022-08-27T01:31:48;27.80;52.80
73254;DHT22;61474;50.834;4.552;2022-08-27T01:34:14;27.80;52.80
73254;DHT22;61474;50.834;4.552;2022-08-27T01:36:39;27.80;52.40
73254;DHT22;61474;50.834;4.552;2022-08-27T01:39:05;27.80;52.30
73254;DHT22;61474;50.834;4.552;2022-08-27T01:41:31;27.80;52.60
73254;DHT22;61474;50.834;4.552;2022-08-27T01:43:56;27.80;52.50
73254;DHT22;61474;50.834;4.552;2022-08-27T01:46:24;27.70;52.30
73254;DHT22;61474;50.834;4.552;2022-08-27T01:48:50;27.70;52.60
73254;DHT22;61474;50.834;4.552;2022-08-27T01:51:16;27.70;52.20
73254;DHT22;61474;50.834;4.552;2022-08-27T01:53:42;27.70;52.40
73254;DHT22;61474;50.834;4.552;2022-08-27T01:56:07;27.70;52.20
73254;DHT22;61474;50.834;4.552;2022-08-27T01:58:33;27.70;52.30
73254;DHT22;61474;50.834;4.552;2022-08-27T02:01:05;27.60;52.60
73254;DHT22;61474;50.834;4.552;2022-08-27T02:03:32;27.70;52.20
73254;DHT22;61474;50.834;4.552;2022-08-27T02:06:04;27.60;52.40
73254;DHT22;61474;50.834;4.552;2022-08-27T02:08:30;27.60;52.20
73254;DHT22;61474;50.834;4.552;2022-08-27T02:10:57;27.70;52.30
73254;DHT22;61474;50.834;4.552;2022-08-27T02:13:22;27.60;52.20
73254;DHT22;61474;50.834;4.552;2022-08-27T02:15:48;27.70;52.50
73254;DHT22;61474;50.834;4.552;2022-08-27T02:18:15;27.70;52.20
73254;DHT22;61474;50.834;4.552;2022-08-27T02:20:45;27.70;52.50
73254;DHT22;61474;50.834;4.552;2022-08-27T02:23:12;27.70;52.30
73254;DHT22;61474;50.834;4.552;2022-08-27T02:25:37;27.60;52.10
73254;DHT22;61474;50.834;4.552;2022-08-27T02:28:04;27.60;52.20
73254;DHT22;61474;50.834;4.552;2022-08-27T02:30:31;27.60;52.20
73254;DHT22;61474;50.834;4.552;2022-08-27T02:32:58;27.60;52.40
73254;DHT22;61474;50.834;4.552;2022-08-27T02:35:25;27.50;52.60
73254;DHT22;61474;50.834;4.552;2022-08-27T02:37:52;27.50;53.20
73254;DHT22;61474;50.834;4.552;2022-08-27T02:40:19;27.50;52.30
73254;DHT22;61474;50.834;4.552;2022-08-27T02:42:46;27.50;52.30
73254;DHT22;61474;50.834;4.552;2022-08-27T02:45:13;27.50;52.30
73254;DHT22;61474;50.834;4.552;2022-08-27T02:47:39;27.50;52.40
73254;DHT22;61474;50.834;4.552;2022-08-27T02:50:06;27.50;52.40
73254;DHT22;61474;50.834;4.552;2022-08-27T02:52:32;27.50;52.50
73254;DHT22;61474;50.834;4.552;2022-08-27T02:54:58;27.50;52.30
73254;DHT22;61474;50.834;4.552;2022-08-27T02:57:24;27.50;52.60
73254;DHT22;61474;50.834;4.552;2022-08-27T02:59:51;27.60;52.20
73254;DHT22;61474;50.834;4.552;2022-08-27T03:02:17;27.60;52.20
73254;DHT22;61474;50.834;4.552;2022-08-27T03:04:43;27.60;51.90
73254;DHT22;61474;50.834;4.552;2022-08-27T03:07:09;27.60;52.00
73254;DHT22;61474;50.834;4.552;2022-08-27T03:09:35;27.60;52.00
73254;DHT22;61474;50.834;4.552;2022-08-27T03:12:00;27.60;51.90
73254;DHT22;61474;50.834;4.552;2022-08-27T03:14:26;27.60;52.20
73254;DHT22;61474;50.834;4.552;2022-08-27T03:16:53;27.70;52.00
73254;DHT22;61474;50.834;4.552;2022-08-27T03:19:19;27.60;52.00
73254;DHT22;61474;50.834;4.552;2022-08-27T03:21:46;27.70;52.10
73254;DHT22;61474;50.834;4.552;2022-08-27T03:24:11;27.70;51.80
73254;DHT22;61474;50.834;4.552;2022-08-27T03:26:37;27.70;51.80
73254;DHT22;61474;50.834;4.552;2022-08-27T03:29:04;27.60;51.60
73254;DHT22;61474;50.834;4.552;2022-08-27T03:31:29;27.60;51.80
73254;DHT22;61474;50.834;4.552;2022-08-27T03:34:01;27.50;51.90
73254;DHT22;61474;50.834;4.552;2022-08-27T03:36:28;27.50;52.00
73254;DHT22;61474;50.834;4.552;2022-08-27T03:38:55;27.50;52.00
73254;DHT22;61474;50.834;4.552;2022-08-27T03:41:22;27.50;51.80
73254;DHT22;61474;50.834;4.552;2022-08-27T03:43:48;27.50;52.00
73254;DHT22;61474;50.834;4.552;2022-08-27T03:46:14;27.50;52.00
73254;DHT22;61474;50.834;4.552;2022-08-27T03:48:40;27.50;52.10
73254;DHT22;61474;50.834;4.552;2022-08-27T03:51:08;27.50;52.00
73254;DHT22;61474;50.834;4.552;2022-08-27T03:53:36;27.50;52.10
73254;DHT22;61474;50.834;4.552;2022-08-27T03:56:03;27.50;51.80
73254;DHT22;61474;50.834;4.552;2022-08-27T03:58:28;27.50;51.80
73254;DHT22;61474;50.834;4.552;2022-08-27T04:00:54;27.50;51.90
73254;DHT22;61474;50.834;4.552;2022-08-27T04:03:20;27.50;52.00
73254;DHT22;61474;50.834;4.552;2022-08-27T04:05:51;27.60;52.00
73254;DHT22;61474;50.834;4.552;2022-08-27T04:08:16;27.60;51.80
73254;DHT22;61474;50.834;4.552;2022-08-27T04:10:42;27.50;52.00
73254;DHT22;61474;50.834;4.552;2022-08-27T04:13:08;27.40;52.00
73254;DHT22;61474;50.834;4.552;2022-08-27T04:15:33;27.50;52.00
73254;DHT22;61474;50.834;4.552;2022-08-27T04:17:59;27.50;52.00
73254;DHT22;61474;50.834;4.552;2022-08-27T04:20:24;27.50;51.80
73254;DHT22;61474;50.834;4.552;2022-08-27T04:22:51;27.50;52.10
73254;DHT22;61474;50.834;4.552;2022-08-27T04:25:16;27.60;52.00
73254;DHT22;61474;50.834;4.552;2022-08-27T04:27:42;27.50;51.80
73254;DHT22;61474;50.834;4.552;2022-08-27T04:30:07;27.50;51.80
73254;DHT22;61474;50.834;4.552;2022-08-27T04:32:35;27.50;51.80
73254;DHT22;61474;50.834;4.552;2022-08-27T04:35:01;27.50;52.20
73254;DHT22;61474;50.834;4.552;2022-08-27T04:37:29;27.50;51.80
73254;DHT22;61474;50.834;4.552;2022-08-27T04:39:56;27.50;51.70
73254;DHT22;61474;50.834;4.552;2022-08-27T04:42:21;27.50;51.90
73254;DHT22;61474;50.834;4.552;2022-08-27T04:44:47;27.50;51.70
73254;DHT22;61474;50.834;4.552;2022-08-27T04:47:13;27.50;51.90
73254;DHT22;61474;50.834;4.552;2022-08-27T04:49:40;27.60;52.00
73254;DHT22;61474;50.834;4.552;2022-08-27T04:52:05;27.60;51.90
73254;DHT22;61474;50.834;4.552;2022-08-27T04:54:32;27.70;51.80
73254;DHT22;61474;50.834;4.552;2022-08-27T04:56:58;27.60;51.60
73254;DHT22;61474;50.834;4.552;2022-08-27T04:59:24;27.60;51.70
73254;DHT22;61474;50.834;4.552;2022-08-27T05:01:49;27.50;51.60
73254;DHT22;61474;50.834;4.552;2022-08-27T05:04:16;27.50;52.00
73254;DHT22;61474;50.834;4.552;2022-08-27T05:06:43;27.50;51.90
73254;DHT22;61474;50.834;4.552;2022-08-27T05:09:14;27.60;51.80
73254;DHT22;61474;50.834;4.552;2022-08-27T05:11:40;27.50;51.80
73254;DHT22;61474;50.834;4.552;2022-08-27T05:14:09;27.50;51.90
73254;DHT22;61474;50.834;4.552;2022-08-27T05:16:35;27.40;52.00
73254;DHT22;61474;50.834;4.552;2022-08-27T05:19:03;27.40;52.40
73254;DHT22;61474;50.834;4.552;2022-08-27T05:21:32;27.50;52.10
73254;DHT22;61474;50.834;4.552;2022-08-27T05:23:59;27.60;51.80
73254;DHT22;61474;50.834;4.552;2022-08-27T05:26:26;27.50;51.80
73254;DHT22;61474;50.834;4.552;2022-08-27T05:28:52;27.50;51.90
73254;DHT22;61474;50.834;4.552;2022-08-27T05:31:20;27.50;52.10
73254;DHT22;61474;50.834;4.552;2022-08-27T05:33:46;27.40;52.10
73254;DHT22;61474;50.834;4.552;2022-08-27T05:36:20;27.30;52.20
73254;DHT22;61474;50.834;4.552;2022-08-27T05:38:47;27.30;52.40
73254;DHT22;61474;50.834;4.552;2022-08-27T05:41:16;27.30;52.20
73254;DHT22;61474;50.834;4.552;2022-08-27T05:43:43;27.40;52.40
73254;DHT22;61474;50.834;4.552;2022-08-27T05:46:14;27.50;52.20
73254;DHT22;61474;50.834;4.552;2022-08-27T05:48:41;27.40;52.10
73254;DHT22;61474;50.834;4.552;2022-08-27T05:51:16;27.30;52.20
73254;DHT22;61474;50.834;4.552;2022-08-27T05:53:42;27.30;52.20
73254;DHT22;61474;50.834;4.552;2022-08-27T05:56:20;27.40;52.40
73254;DHT22;61474;50.834;4.552;2022-08-27T05:58:47;27.50;52.10
73254;DHT22;61474;50.834;4.552;2022-08-27T06:01:34;27.50;52.00
73254;DHT22;61474;50.834;4.552;2022-08-27T06:04:01;27.50;52.00
73254;DHT22;61474;50.834;4.552;2022-08-27T06:06:27;27.40;52.00
73254;DHT22;61474;50.834;4.552;2022-08-27T06:08:53;27.40;52.20
73254;DHT22;61474;50.834;4.552;2022-08-27T06:11:19;27.40;52.10
73254;DHT22;61474;50.834;4.552;2022-08-27T06:13:46;27.40;52.10
73254;DHT22;61474;50.834;4.552;2022-08-27T06:16:14;27.40;52.20
73254;DHT22;61474;50.834;4.552;2022-08-27T06:18:42;27.30;52.20
73254;DHT22;61474;50.834;4.552;2022-08-27T06:21:09;27.30;52.30
73254;DHT22;61474;50.834;4.552;2022-08-27T06:23:36;27.20;52.40
73254;DHT22;61474;50.834;4.552;2022-08-27T06:26:07;27.30;52.50
73254;DHT22;61474;50.834;4.552;2022-08-27T06:28:33;27.30;52.40
73254;DHT22;61474;50.834;4.552;2022-08-27T06:33:29;27.30;52.50
73254;DHT22;61474;50.834;4.552;2022-08-27T06:35:58;27.30;52.40
73254;DHT22;61474;50.834;4.552;2022-08-27T06:38:24;27.30;52.20
73254;DHT22;61474;50.834;4.552;2022-08-27T06:40:49;27.30;52.40
73254;DHT22;61474;50.834;4.552;2022-08-27T06:43:15;27.30;52.40
73254;DHT22;61474;50.834;4.552;2022-08-27T06:45:41;27.30;52.30
73254;DHT22;61474;50.834;4.552;2022-08-27T06:48:06;27.30;52.20
73254;DHT22;61474;50.834;4.552;2022-08-27T06:50:39;27.20;52.40
73254;DHT22;61474;50.834;4.552;2022-08-27T06:53:05;27.20;52.50
73254;DHT22;61474;50.834;4.552;2022-08-27T06:55:31;27.20;52.50
73254;DHT22;61474;50.834;4.552;2022-08-27T06:57:57;27.20;52.70
73254;DHT22;61474;50.834;4.552;2022-08-27T07:00:22;27.20;52.50
73254;DHT22;61474;50.834;4.552;2022-08-27T07:02:49;27.30;52.70
73254;DHT22;61474;50.834;4.552;2022-08-27T07:05:15;27.30;52.40
73254;DHT22;61474;50.834;4.552;2022-08-27T07:07:40;27.40;52.40
73254;DHT22;61474;50.834;4.552;2022-08-27T07:10:06;27.40;52.20
73254;DHT22;61474;50.834;4.552;2022-08-27T07:12:32;27.40;52.40
73254;DHT22;61474;50.834;4.552;2022-08-27T07:14:58;27.50;52.60
73254;DHT22;61474;50.834;4.552;2022-08-27T07:17:23;27.40;52.20
73254;DHT22;61474;50.834;4.552;2022-08-27T07:19:49;27.50;52.10
73254;DHT22;61474;50.834;4.552;2022-08-27T07:22:15;27.50;52.30
73254;DHT22;61474;50.834;4.552;2022-08-27T07:24:40;27.50;52.10
73254;DHT22;61474;50.834;4.552;2022-08-27T07:27:08;27.40;52.40
73254;DHT22;61474;50.834;4.552;2022-08-27T07:29:34;27.50;52.50
73254;DHT22;61474;50.834;4.552;2022-08-27T07:31:59;27.50;52.00
73254;DHT22;61474;50.834;4.552;2022-08-27T07:34:25;27.50;51.80
73254;DHT22;61474;50.834;4.552;2022-08-27T07:36:51;27.40;52.10
73254;DHT22;61474;50.834;4.552;2022-08-27T07:39:16;27.50;52.10
73254;DHT22;61474;50.834;4.552;2022-08-27T07:41:42;27.40;52.10
73254;DHT22;61474;50.834;4.552;2022-08-27T07:44:26;27.50;52.20
73254;DHT22;61474;50.834;4.552;2022-08-27T07:46:56;27.40;52.10
73254;DHT22;61474;50.834;4.552;2022-08-27T07:49:25;27.50;52.10
73254;DHT22;61474;50.834;4.552;2022-08-27T07:51:51;27.50;52.10
73254;DHT22;61474;50.834;4.552;2022-08-27T07:54:17;27.50;52.00
73254;DHT22;61474;50.834;4.552;2022-08-27T07:56:42;27.50;51.90
73254;DHT22;61474;50.834;4.552;2022-08-27T07:59:08;27.50;52.10
73254;DHT22;61474;50.834;4.552;2022-08-27T08:01:34;27.50;52.40
73254;DHT22;61474;50.834;4.552;2022-08-27T08:03:59;27.50;52.40
73254;DHT22;61474;50.834;4.552;2022-08-27T08:06:25;27.60;52.10
73254;DHT22;61474;50.834;4.552;2022-08-27T08:08:51;27.60;51.90
73254;DHT22;61474;50.834;4.552;2022-08-27T08:11:17;27.60;51.80
73254;DHT22;61474;50.834;4.552;2022-08-27T08:13:45;27.60;52.00
73254;DHT22;61474;50.834;4.552;2022-08-27T08:16:11;27.60;51.70
73254;DHT22;61474;50.834;4.552;2022-08-27T08:18:37;27.60;51.90
73254;DHT22;61474;50.834;4.552;2022-08-27T08:21:09;27.70;52.20
73254;DHT22;61474;50.834;4.552;2022-08-27T08:23:35;27.60;51.90
73254;DHT22;61474;50.834;4.552;2022-08-27T08:26:01;27.60;52.00
73254;DHT22;61474;50.834;4.552;2022-08-27T08:28:27;27.60;51.90
73254;DHT22;61474;50.834;4.552;2022-08-27T08:30:54;27.60;51.70
73254;DHT22;61474;50.834;4.552;2022-08-27T08:33:21;27.60;52.10
73254;DHT22;61474;50.834;4.552;2022-08-27T08:35:46;27.60;52.00
73254;DHT22;61474;50.834;4.552;2022-08-27T08:38:14;27.60;52.10
73254;DHT22;61474;50.834;4.552;2022-08-27T08:40:43;27.50;51.70
73254;DHT22;61474;50.834;4.552;2022-08-27T08:43:26;27.60;51.80
73254;DHT22;61474;50.834;4.552;2022-08-27T08:45:55;27.60;52.10
73254;DHT22;61474;50.834;4.552;2022-08-27T08:48:24;27.70;51.50
73254;DHT22;61474;50.834;4.552;2022-08-27T08:51:05;27.70;52.00
73254;DHT22;61474;50.834;4.552;2022-08-27T08:54:06;27.60;51.90
73254;DHT22;61474;50.834;4.552;2022-08-27T08:56:54;27.60;51.80
73254;DHT22;61474;50.834;4.552;2022-08-27T08:59:39;27.60;51.80
73254;DHT22;61474;50.834;4.552;2022-08-27T09:02:09;27.50;51.80
73254;DHT22;61474;50.834;4.552;2022-08-27T09:04:36;27.60;52.20
73254;DHT22;61474;50.834;4.552;2022-08-27T09:07:05;27.60;51.90
73254;DHT22;61474;50.834;4.552;2022-08-27T09:12:10;27.60;51.60
73254;DHT22;61474;50.834;4.552;2022-08-27T09:14:52;27.60;51.70
73254;DHT22;61474;50.834;4.552;2022-08-27T09:17:19;27.60;51.70
73254;DHT22;61474;50.834;4.552;2022-08-27T09:19:44;27.60;52.20
73254;DHT22;61474;50.834;4.552;2022-08-27T09:22:19;27.60;52.00
73254;DHT22;61474;50.834;4.552;2022-08-27T09:27:39;27.60;51.90
73254;DHT22;61474;50.834;4.552;2022-08-27T09:30:28;27.60;51.90
73254;DHT22;61474;50.834;4.552;2022-08-27T09:33:00;27.60;52.00
73254;DHT22;61474;50.834;4.552;2022-08-27T09:35:40;27.60;52.00
73254;DHT22;61474;50.834;4.552;2022-08-27T09:38:07;27.70;52.00
73254;DHT22;61474;50.834;4.552;2022-08-27T09:40:41;27.70;51.80
73254;DHT22;61474;50.834;4.552;2022-08-27T09:45:53;27.70;52.10
73254;DHT22;61474;50.834;4.552;2022-08-27T09:48:27;27.70;52.00
73254;DHT22;61474;50.834;4.552;2022-08-27T09:51:04;27.70;51.80
73254;DHT22;61474;50.834;4.552;2022-08-27T09:53:47;27.60;51.70
73254;DHT22;61474;50.834;4.552;2022-08-27T09:56:32;27.70;52.50
73254;DHT22;61474;50.834;4.552;2022-08-27T09:59:19;27.60;51.70
73254;DHT22;61474;50.834;4.552;2022-08-27T10:02:12;27.60;52.10
73254;DHT22;61474;50.834;4.552;2022-08-27T10:04:47;27.60;51.80
73254;DHT22;61474;50.834;4.552;2022-08-27T10:13:06;27.60;52.00
73254;DHT22;61474;50.834;4.552;2022-08-27T10:15:41;27.60;52.10
73254;DHT22;61474;50.834;4.552;2022-08-27T10:18:16;27.70;52.70
73254;DHT22;61474;50.834;4.552;2022-08-27T10:26:40;27.70;52.30
73254;DHT22;61474;50.834;4.552;2022-08-27T10:40:41;27.70;52.30
73254;DHT22;61474;50.834;4.552;2022-08-27T10:49:12;27.70;52.60
73254;DHT22;61474;50.834;4.552;2022-08-27T10:51:50;27.70;52.30
73254;DHT22;61474;50.834;4.552;2022-08-27T10:54:50;27.70;52.10
73254;DHT22;61474;50.834;4.552;2022-08-27T11:02:49;27.70;52.20
73254;DHT22;61474;50.834;4.552;2022-08-27T11:05:30;27.60;52.10
73254;DHT22;61474;50.834;4.552;2022-08-27T11:08:13;27.60;52.40
73254;DHT22;61474;50.834;4.552;2022-08-27T11:10:51;27.60;52.50
73254;DHT22;61474;50.834;4.552;2022-08-27T11:13:34;27.70;52.60
73254;DHT22;61474;50.834;4.552;2022-08-27T11:16:01;27.60;52.40
73254;DHT22;61474;50.834;4.552;2022-08-27T11:18:47;27.70;52.40
73254;DHT22;61474;50.834;4.552;2022-08-27T11:21:47;27.60;52.00
73254;DHT22;61474;50.834;4.552;2022-08-27T11:24:40;27.60;52.20
73254;DHT22;61474;50.834;4.552;2022-08-27T11:27:08;27.60;52.30
73254;DHT22;61474;50.834;4.552;2022-08-27T11:29:41;27.60;52.40
73254;DHT22;61474;50.834;4.552;2022-08-27T11:32:21;27.60;52.70
73254;DHT22;61474;50.834;4.552;2022-08-27T11:43:12;27.60;52.00
73254;DHT22;61474;50.834;4.552;2022-08-27T11:46:03;27.60;52.40
73254;DHT22;61474;50.834;4.552;2022-08-27T11:48:38;27.60;52.00
73254;DHT22;61474;50.834;4.552;2022-08-27T11:51:13;27.60;52.40
73254;DHT22;61474;50.834;4.552;2022-08-27T11:53:59;27.70;52.30
73254;DHT22;61474;50.834;4.552;2022-08-27T11:56:36;27.60;51.80
73254;DHT22;61474;50.834;4.552;2022-08-27T12:01:50;27.60;51.80
73254;DHT22;61474;50.834;4.552;2022-08-27T12:04:34;27.60;52.00
73254;DHT22;61474;50.834;4.552;2022-08-27T12:07:23;27.60;52.10
73254;DHT22;61474;50.834;4.552;2022-08-27T12:10:11;27.70;52.30
73254;DHT22;61474;50.834;4.552;2022-08-27T12:13:12;27.60;52.10
73254;DHT22;61474;50.834;4.552;2022-08-27T12:15:48;27.60;52.20
73254;DHT22;61474;50.834;4.552;2022-08-27T12:26:24;27.70;51.80
73254;DHT22;61474;50.834;4.552;2022-08-27T12:31:44;27.60;51.60
73254;DHT22;61474;50.834;4.552;2022-08-27T12:34:17;27.60;51.70
73254;DHT22;61474;50.834;4.552;2022-08-27T12:36:44;27.60;51.80
73254;DHT22;61474;50.834;4.552;2022-08-27T12:39:16;27.60;51.80
73254;DHT22;61474;50.834;4.552;2022-08-27T12:41:48;27.60;51.50
73254;DHT22;61474;50.834;4.552;2022-08-27T12:44:29;27.60;51.80
73254;DHT22;61474;50.834;4.552;2022-08-27T12:47:03;27.60;51.80
73254;DHT22;61474;50.834;4.552;2022-08-27T12:49:47;27.70;52.20
73254;DHT22;61474;50.834;4.552;2022-08-27T12:52:39;27.70;51.90
73254;DHT22;61474;50.834;4.552;2022-08-27T12:55:39;27.70;51.60
73254;DHT22;61474;50.834;4.552;2022-08-27T13:03:41;27.70;51.60
73254;DHT22;61474;50.834;4.552;2022-08-27T13:06:24;27.70;51.80
73254;DHT22;61474;50.834;4.552;2022-08-27T13:08:56;27.70;51.60
73254;DHT22;61474;50.834;4.552;2022-08-27T13:11:30;27.60;51.70
73254;DHT22;61474;50.834;4.552;2022-08-27T13:14:06;27.60;51.70
73254;DHT22;61474;50.834;4.552;2022-08-27T13:16:32;27.60;52.00
73254;DHT22;61474;50.834;4.552;2022-08-27T13:18:57;27.60;51.70
73254;DHT22;61474;50.834;4.552;2022-08-27T13:21:26;27.60;51.90
73254;DHT22;61474;50.834;4.552;2022-08-27T13:23:58;27.60;52.00
73254;DHT22;61474;50.834;4.552;2022-08-27T13:26:27;27.60;52.00
73254;DHT22;61474;50.834;4.552;2022-08-27T13:28:54;27.60;52.10
73254;DHT22;61474;50.834;4.552;2022-08-27T13:31:21;27.60;52.40
73254;DHT22;61474;50.834;4.552;2022-08-27T13:33:48;27.60;52.00
73254;DHT22;61474;50.834;4.552;2022-08-27T13:37:19;27.60;52.10
73254;DHT22;61474;50.834;4.552;2022-08-27T13:39:13;27.70;52.30
73254;DHT22;61474;50.834;4.552;2022-08-27T13:41:40;27.70;52.30
73254;DHT22;61474;50.834;4.552;2022-08-27T13:44:41;27.70;51.80
73254;DHT22;61474;50.834;4.552;2022-08-27T13:47:05;27.70;52.00
73254;DHT22;61474;50.834;4.552;2022-08-27T13:49:34;27.70;52.00
73254;DHT22;61474;50.834;4.552;2022-08-27T13:52:15;27.70;52.00
73254;DHT22;61474;50.834;4.552;2022-08-27T13:54:47;27.70;51.90
73254;DHT22;61474;50.834;4.552;2022-08-27T13:57:39;27.70;51.90
73254;DHT22;61474;50.834;4.552;2022-08-27T14:00:17;27.70;52.20
73254;DHT22;61474;50.834;4.552;2022-08-27T14:02:46;27.70;51.90
73254;DHT22;61474;50.834;4.552;2022-08-27T14:07:57;27.70;52.00
73254;DHT22;61474;50.834;4.552;2022-08-27T14:10:25;27.60;52.00
73254;DHT22;61474;50.834;4.552;2022-08-27T14:15:42;27.70;52.10
73254;DHT22;61474;50.834;4.552;2022-08-27T14:18:30;27.70;52.20
73254;DHT22;61474;50.834;4.552;2022-08-27T14:20:58;27.70;52.10
73254;DHT22;61474;50.834;4.552;2022-08-27T14:23:25;27.70;52.20
73254;DHT22;61474;50.834;4.552;2022-08-27T14:25:52;27.70;52.10
73254;DHT22;61474;50.834;4.552;2022-08-27T14:28:19;27.70;52.20
73254;DHT22;61474;50.834;4.552;2022-08-27T14:30:45;27.70;52.30
73254;DHT22;61474;50.834;4.552;2022-08-27T14:33:11;27.70;52.10
73254;DHT22;61474;50.834;4.552;2022-08-27T14:35:37;27.80;52.30
73254;DHT22;61474;50.834;4.552;2022-08-27T14:38:17;27.80;51.70
73254;DHT22;61474;50.834;4.552;2022-08-27T14:40:52;27.90;51.50
73254;DHT22;61474;50.834;4.552;2022-08-27T14:43:24;27.80;51.10
73254;DHT22;61474;50.834;4.552;2022-08-27T14:45:51;27.90;51.60
73254;DHT22;61474;50.834;4.552;2022-08-27T14:48:23;27.80;51.60
73254;DHT22;61474;50.834;4.552;2022-08-27T14:50:49;27.80;51.90
73254;DHT22;61474;50.834;4.552;2022-08-27T14:53:15;27.90;51.80
73254;DHT22;61474;50.834;4.552;2022-08-27T14:55:44;27.80;52.20
73254;DHT22;61474;50.834;4.552;2022-08-27T14:58:11;27.80;51.60
73254;DHT22;61474;50.834;4.552;2022-08-27T15:00:38;27.70;52.00
73254;DHT22;61474;50.834;4.552;2022-08-27T15:03:03;27.50;52.00
73254;DHT22;61474;50.834;4.552;2022-08-27T15:05:29;27.60;52.10
73254;DHT22;61474;50.834;4.552;2022-08-27T15:07:54;27.60;52.10
73254;DHT22;61474;50.834;4.552;2022-08-27T15:10:22;27.60;52.10
73254;DHT22;61474;50.834;4.552;2022-08-27T15:12:48;27.60;51.80
73254;DHT22;61474;50.834;4.552;2022-08-27T15:15:15;27.60;52.00
73254;DHT22;61474;50.834;4.552;2022-08-27T15:17:42;27.70;52.00
73254;DHT22;61474;50.834;4.552;2022-08-27T15:20:10;27.70;52.00
73254;DHT22;61474;50.834;4.552;2022-08-27T15:22:38;27.70;51.80
73254;DHT22;61474;50.834;4.552;2022-08-27T15:25:06;27.70;51.60
73254;DHT22;61474;50.834;4.552;2022-08-27T15:27:32;27.60;51.40
73254;DHT22;61474;50.834;4.552;2022-08-27T15:29:59;27.60;51.40
73254;DHT22;61474;50.834;4.552;2022-08-27T15:32:26;27.60;51.50
73254;DHT22;61474;50.834;4.552;2022-08-27T15:34:54;27.60;51.70
73254;DHT22;61474;50.834;4.552;2022-08-27T15:37:20;27.50;51.70
73254;DHT22;61474;50.834;4.552;2022-08-27T15:39:45;27.50;51.70
73254;DHT22;61474;50.834;4.552;2022-08-27T15:42:11;27.60;51.90
73254;DHT22;61474;50.834;4.552;2022-08-27T15:44:43;27.60;51.50
73254;DHT22;61474;50.834;4.552;2022-08-27T15:47:09;27.60;51.40
73254;DHT22;61474;50.834;4.552;2022-08-27T15:49:35;27.60;51.30
73254;DHT22;61474;50.834;4.552;2022-08-27T15:52:01;27.70;51.10
73254;DHT22;61474;50.834;4.552;2022-08-27T15:54:27;27.60;51.10
73254;DHT22;61474;50.834;4.552;2022-08-27T15:56:52;27.60;51.00
73254;DHT22;61474;50.834;4.552;2022-08-27T15:59:18;27.70;51.60
73254;DHT22;61474;50.834;4.552;2022-08-27T16:01:43;27.70;50.90
73254;DHT22;61474;50.834;4.552;2022-08-27T16:04:09;27.60;51.20
73254;DHT22;61474;50.834;4.552;2022-08-27T16:06:35;27.50;51.30
73254;DHT22;61474;50.834;4.552;2022-08-27T16:09:03;27.50;51.40
73254;DHT22;61474;50.834;4.552;2022-08-27T16:11:29;27.60;51.30
73254;DHT22;61474;50.834;4.552;2022-08-27T16:13:54;27.50;51.50
73254;DHT22;61474;50.834;4.552;2022-08-27T16:16:24;27.60;51.60
73254;DHT22;61474;50.834;4.552;2022-08-27T16:18:50;27.70;51.50
73254;DHT22;61474;50.834;4.552;2022-08-27T16:21:16;27.60;51.20
73254;DHT22;61474;50.834;4.552;2022-08-27T16:23:42;27.60;51.70
73254;DHT22;61474;50.834;4.552;2022-08-27T16:26:07;27.70;51.20
73254;DHT22;61474;50.834;4.552;2022-08-27T16:28:33;27.70;51.30
73254;DHT22;61474;50.834;4.552;2022-08-27T16:30:58;27.70;51.10
73254;DHT22;61474;50.834;4.552;2022-08-27T16:33:24;27.70;51.30
73254;DHT22;61474;50.834;4.552;2022-08-27T16:35:50;27.70;51.20
73254;DHT22;61474;50.834;4.552;2022-08-27T16:38:16;27.70;51.20
73254;DHT22;61474;50.834;4.552;2022-08-27T16:40:48;27.70;51.50
73254;DHT22;61474;50.834;4.552;2022-08-27T16:43:20;27.70;51.40
73254;DHT22;61474;50.834;4.552;2022-08-27T16:45:48;27.80;51.50
73254;DHT22;61474;50.834;4.552;2022-08-27T16:48:14;27.80;51.70
73254;DHT22;61474;50.834;4.552;2022-08-27T16:50:59;27.80;51.30
73254;DHT22;61474;50.834;4.552;2022-08-27T16:53:25;27.90;51.10
73254;DHT22;61474;50.834;4.552;2022-08-27T16:55:51;27.80;51.30
73254;DHT22;61474;50.834;4.552;2022-08-27T16:58:23;27.80;51.10
73254;DHT22;61474;50.834;4.552;2022-08-27T17:00:51;27.80;51.10
73254;DHT22;61474;50.834;4.552;2022-08-27T17:03:19;27.80;51.10
73254;DHT22;61474;50.834;4.552;2022-08-27T17:05:45;27.80;51.00